Time;durP1;ratioP1;P1;durP2;ratioP2;P2;SDS_P1;SDS_P2;PMS_P1;PMS_P2;Temp;Humidity;BMP_temperature;BMP_pressure;BME280_temperature;BME280_humidity;BME280_pressure;Samples;Min_cycle;Max_cycle;Signal;HPM_P1;HPM_P2
2024/02/06 00:00:26;;;;;;;23.02;3.70;;;;;;;;;;4976019;28;20053;-82
2024/02/06 00:02:53;;;;;;;18.52;3.88;;;;;;;;;;4991308;28;20475;-82
2024/02/06 00:05:20;;;;;;;21.58;4.32;;;;;;;;;;4958701;28;20055;-82
2024/02/06 00:07:47;;;;;;;17.23;3.53;;;;;;;;;;4975181;28;20047;-82
2024/02/06 00:10:14;;;;;;;22.13;3.85;;;;;;;;;;4993531;28;20093;-82
2024/02/06 00:12:40;;;;;;;15.65;3.42;;;;;;;;;;4978700;28;20045;-82
2024/02/06 00:15:07;;;;;;;21.98;4.72;;;;;;;;;;4978101;28;20567;-82
2024/02/06 00:17:34;;;;;;;21.75;4.50;;;;;;;;;;4994494;28;20064;-82
2024/02/06 00:20:01;;;;;;;18.85;3.45;;;;;;;;;;4978254;28;20093;-82
2024/02/06 00:22:28;;;;;;;19.95;3.47;;;;;;;;;;4977787;28;20073;-81
2024/02/06 00:24:55;;;;;;;23.23;4.10;;;;;;;;;;4977891;28;20143;-82
2024/02/06 00:27:22;;;;;;;16.80;4.50;;;;;;;;;;4995087;28;20488;-82
2024/02/06 00:29:51;;;;;;;20.65;4.22;;;;;;;;;;4994265;28;20054;-82
2024/02/06 00:32:19;;;;;;;20.80;3.60;;;;;;;;;;4995030;28;20061;-82
2024/02/06 00:34:46;;;;;;;21.73;3.65;;;;;;;;;;4995402;28;20046;-82
2024/02/06 00:37:12;;;;;;;18.30;4.13;;;;;;;;;;4994833;28;20047;-82
2024/02/06 00:39:39;;;;;;;31.52;4.57;;;;;;;;;;4978159;28;20436;-82
2024/02/06 00:42:06;;;;;;;17.95;3.63;;;;;;;;;;4994726;28;20050;-82
2024/02/06 00:44:34;;;;;;;23.88;3.63;;;;;;;;;;4994040;28;20054;-81
2024/02/06 00:47:01;;;;;;;21.23;4.23;;;;;;;;;;4962137;28;20046;-82
2024/02/06 00:49:28;;;;;;;18.70;3.60;;;;;;;;;;4994783;28;20038;-82
2024/02/06 00:51:55;;;;;;;16.60;3.17;;;;;;;;;;4977879;28;20352;-81
2024/02/06 00:54:21;;;;;;;22.05;4.45;;;;;;;;;;4977068;28;20042;-82
2024/02/06 00:56:48;;;;;;;18.58;3.97;;;;;;;;;;4994882;28;20041;-82
2024/02/06 00:59:15;;;;;;;17.30;4.10;;;;;;;;;;4994210;28;20133;-82
2024/02/06 01:01:41;;;;;;;19.60;3.92;;;;;;;;;;4994737;28;20053;-81
2024/02/06 01:04:08;;;;;;;21.52;3.65;;;;;;;;;;4994314;28;20542;-82
2024/02/06 01:06:35;;;;;;;23.27;4.25;;;;;;;;;;4994512;28;20046;-82
2024/02/06 01:09:02;;;;;;;21.60;3.75;;;;;;;;;;4977194;28;20053;-82
2024/02/06 01:11:30;;;;;;;23.60;4.00;;;;;;;;;;4976946;28;20076;-82
2024/02/06 01:13:56;;;;;;;21.58;3.63;;;;;;;;;;4994610;28;20046;-82
2024/02/06 01:16:23;;;;;;;20.75;3.42;;;;;;;;;;4993900;28;20050;-82
2024/02/06 01:18:50;;;;;;;19.13;3.55;;;;;;;;;;4977322;28;20070;-82
2024/02/06 01:21:17;;;;;;;16.35;4.25;;;;;;;;;;4993824;28;20051;-82
2024/02/06 01:23:44;;;;;;;17.98;4.05;;;;;;;;;;4994210;28;20532;-82
2024/02/06 01:26:12;;;;;;;20.25;4.28;;;;;;;;;;4993708;28;20062;-81
2024/02/06 01:28:39;;;;;;;24.40;4.10;;;;;;;;;;4994520;28;20050;-81
2024/02/06 01:31:05;;;;;;;28.10;3.85;;;;;;;;;;4993816;28;20046;-82
2024/02/06 01:33:32;;;;;;;22.40;4.38;;;;;;;;;;4977007;28;20046;-82
2024/02/06 01:35:59;;;;;;;25.75;4.60;;;;;;;;;;4994372;28;20548;-82
2024/02/06 01:38:26;;;;;;;25.52;4.50;;;;;;;;;;4976262;28;20085;-82
2024/02/06 01:40:53;;;;;;;15.25;3.60;;;;;;;;;;4993797;28;20068;-82
2024/02/06 01:43:20;;;;;;;20.70;3.90;;;;;;;;;;4993722;28;20116;-82
2024/02/06 01:45:52;;;;;;;19.98;4.32;;;;;;;;;;4992926;28;20104;-82
2024/02/06 01:48:21;;;;;;;24.73;3.92;;;;;;;;;;4992415;28;20046;-82
2024/02/06 01:50:49;;;;;;;22.85;4.57;;;;;;;;;;4976814;28;20042;-82
2024/02/06 01:53:17;;;;;;;23.50;4.28;;;;;;;;;;4976150;28;20433;-82
2024/02/06 01:55:44;;;;;;;29.98;4.30;;;;;;;;;;4976533;28;20052;-82
2024/02/06 01:58:12;;;;;;;25.13;4.90;;;;;;;;;;4961175;28;20046;-82
2024/02/06 02:00:40;;;;;;;25.23;4.60;;;;;;;;;;4994097;28;20371;-82
2024/02/06 02:03:08;;;;;;;22.92;4.10;;;;;;;;;;4994341;28;20042;-81
2024/02/06 02:05:35;;;;;;;26.92;4.00;;;;;;;;;;4993724;28;20089;-82
2024/02/06 02:08:02;;;;;;;29.17;3.97;;;;;;;;;;4993522;28;20105;-82
2024/02/06 02:10:29;;;;;;;19.25;4.90;;;;;;;;;;4975854;28;20053;-82
2024/02/06 02:12:56;;;;;;;23.48;4.07;;;;;;;;;;4993625;28;20366;-82
2024/02/06 02:15:23;;;;;;;26.65;4.38;;;;;;;;;;4993028;28;20046;-82
2024/02/06 02:17:51;;;;;;;21.83;3.97;;;;;;;;;;4993696;28;20088;-82
2024/02/06 02:20:18;;;;;;;21.77;4.10;;;;;;;;;;4959835;28;20119;-82
2024/02/06 02:22:45;;;;;;;28.23;4.75;;;;;;;;;;4993323;28;20053;-82
2024/02/06 02:25:12;;;;;;;23.98;5.60;;;;;;;;;;4975629;28;20050;-82
2024/02/06 02:27:40;;;;;;;28.08;4.70;;;;;;;;;;4993422;28;20058;-81
2024/02/06 02:30:07;;;;;;;30.60;4.72;;;;;;;;;;4959642;28;20055;-82
2024/02/06 02:32:36;;;;;;;21.93;4.13;;;;;;;;;;4993383;28;20046;-82
2024/02/06 02:35:03;;;;;;;33.28;5.05;;;;;;;;;;4977717;28;20042;-82
2024/02/06 02:37:30;;;;;;;25.48;4.60;;;;;;;;;;4975895;28;20046;-83
2024/02/06 02:39:57;;;;;;;22.98;4.70;;;;;;;;;;4960039;28;20057;-82
2024/02/06 02:42:23;;;;;;;29.17;4.72;;;;;;;;;;4992712;28;20070;-82
2024/02/06 02:44:50;;;;;;;25.63;4.57;;;;;;;;;;4975884;28;20085;-82
2024/02/06 02:47:17;;;;;;;32.03;4.57;;;;;;;;;;4992823;28;20050;-82
2024/02/06 02:49:44;;;;;;;36.55;4.65;;;;;;;;;;4992247;28;20057;-82
2024/02/06 02:52:11;;;;;;;24.10;4.65;;;;;;;;;;4992503;28;20181;-82
2024/02/06 02:54:37;;;;;;;28.77;5.47;;;;;;;;;;4976209;28;20049;-82
2024/02/06 02:57:05;;;;;;;23.25;4.18;;;;;;;;;;4992598;28;20137;-81
2024/02/06 02:59:32;;;;;;;27.65;4.82;;;;;;;;;;4959975;28;20043;-82
2024/02/06 03:01:58;;;;;;;30.38;4.90;;;;;;;;;;4993108;28;20046;-82
2024/02/06 03:04:25;;;;;;;37.13;5.30;;;;;;;;;;4992713;28;20047;-82
2024/02/06 03:06:52;;;;;;;34.65;5.32;;;;;;;;;;4992872;28;20129;-82
2024/02/06 03:09:19;;;;;;;21.40;4.15;;;;;;;;;;4962152;28;20469;-82
2024/02/06 03:11:46;;;;;;;33.08;4.93;;;;;;;;;;4996611;28;20130;-82
2024/02/06 03:14:13;;;;;;;24.67;4.53;;;;;;;;;;4996229;28;20042;-82
2024/02/06 03:16:40;;;;;;;32.20;5.30;;;;;;;;;;4996636;28;20477;-83
2024/02/06 03:19:07;;;;;;;23.90;4.53;;;;;;;;;;4979050;28;20061;-82
2024/02/06 03:21:35;;;;;;;25.20;4.63;;;;;;;;;;4996542;28;20446;-82
2024/02/06 03:24:01;;;;;;;35.55;6.40;;;;;;;;;;4996424;28;20441;-82
2024/02/06 03:26:29;;;;;;;29.70;5.85;;;;;;;;;;4994945;28;20050;-81
2024/02/06 03:28:56;;;;;;;31.25;4.63;;;;;;;;;;4979214;28;20062;-82
2024/02/06 03:31:23;;;;;;;33.55;5.18;;;;;;;;;;4978824;28;20042;-82
2024/02/06 03:33:50;;;;;;;30.23;4.90;;;;;;;;;;4996254;28;20133;-82
2024/02/06 03:36:17;;;;;;;26.20;4.65;;;;;;;;;;4978451;28;20054;-82
2024/02/06 03:38:44;;;;;;;23.95;4.65;;;;;;;;;;4996535;28;20046;-82
2024/02/06 03:41:10;;;;;;;32.33;7.07;;;;;;;;;;4978772;28;20042;-82
2024/02/06 03:43:37;;;;;;;25.60;5.28;;;;;;;;;;4996222;28;20046;-82
2024/02/06 03:46:08;;;;;;;28.77;4.72;;;;;;;;;;4995513;28;20042;-82
2024/02/06 03:48:35;;;;;;;26.08;5.05;;;;;;;;;;4996443;28;20117;-82
2024/02/06 03:51:02;;;;;;;38.10;5.50;;;;;;;;;;4962901;28;20049;-81
2024/02/06 03:53:29;;;;;;;27.42;4.57;;;;;;;;;;4995838;28;20038;-82
2024/02/06 03:55:56;;;;;;;29.85;5.20;;;;;;;;;;4995975;28;20465;-82
2024/02/06 03:58:23;;;;;;;32.72;5.85;;;;;;;;;;4995214;28;20052;-82
2024/02/06 04:00:50;;;;;;;26.42;5.07;;;;;;;;;;4994773;28;20493;-82
2024/02/06 04:03:17;;;;;;;26.58;4.70;;;;;;;;;;4994265;28;20117;-82
2024/02/06 04:05:45;;;;;;;29.10;5.55;;;;;;;;;;4995754;28;20370;-82
2024/02/06 04:08:12;;;;;;;27.33;5.18;;;;;;;;;;4994851;28;20070;-82
2024/02/06 04:10:40;;;;;;;34.42;5.30;;;;;;;;;;4995797;28;20129;-82
2024/02/06 04:13:08;;;;;;;33.45;5.20;;;;;;;;;;4995317;28;20042;-82
2024/02/06 04:15:35;;;;;;;44.72;5.47;;;;;;;;;;4962209;28;20042;-82
2024/02/06 04:18:05;;;;;;;41.17;5.65;;;;;;;;;;4978251;28;20125;-82
2024/02/06 04:20:32;;;;;;;19.15;4.13;;;;;;;;;;4995220;28;20047;-83
2024/02/06 04:23:02;;;;;;;35.92;5.22;;;;;;;;;;4977899;28;20491;-82
2024/02/06 04:25:29;;;;;;;36.60;5.10;;;;;;;;;;4995227;28;20046;-82
2024/02/06 04:27:56;;;;;;;29.42;5.22;;;;;;;;;;4995376;28;20078;-82
2024/02/06 04:30:23;;;;;;;25.90;4.75;;;;;;;;;;4977826;28;20054;-82
2024/02/06 04:32:51;;;;;;;26.50;4.68;;;;;;;;;;4995429;28;20042;-82
2024/02/06 04:35:19;;;;;;;;;;;;;;;;;;4995451;28;20081;-82
2024/02/06 04:37:45;;;;;;;29.70;5.43;;;;;;;;;;4978061;28;19928;-82
2024/02/06 04:40:12;;;;;;;33.10;4.80;;;;;;;;;;4976959;28;20042;-82
2024/02/06 04:42:39;;;;;;;23.05;4.38;;;;;;;;;;4961858;28;20046;-82
2024/02/06 04:45:06;;;;;;;29.67;4.70;;;;;;;;;;4994466;28;20250;-82
2024/02/06 04:47:33;;;;;;;37.00;6.45;;;;;;;;;;4994978;28;20089;-82
2024/02/06 04:50:01;;;;;;;25.90;4.75;;;;;;;;;;4995134;28;20047;-81
2024/02/06 04:52:27;;;;;;;32.97;5.65;;;;;;;;;;4961188;28;20461;-82
2024/02/06 04:54:54;;;;;;;31.65;5.03;;;;;;;;;;4994936;28;20053;-82
2024/02/06 04:57:21;;;;;;;29.00;4.13;;;;;;;;;;4961190;28;20074;-82
2024/02/06 04:59:48;;;;;;;25.83;4.32;;;;;;;;;;4994908;28;20038;-82
2024/02/06 05:02:15;;;;;;;38.25;5.40;;;;;;;;;;4960866;28;20057;-82
2024/02/06 05:04:41;;;;;;;26.38;4.75;;;;;;;;;;4977759;28;20053;-82
2024/02/06 05:07:08;;;;;;;29.08;5.10;;;;;;;;;;4976705;28;20406;-82
2024/02/06 05:09:36;;;;;;;28.35;5.22;;;;;;;;;;4994314;28;20046;-83
2024/02/06 05:12:04;;;;;;;33.83;5.18;;;;;;;;;;4977372;28;20046;-82
2024/02/06 05:14:31;;;;;;;36.63;4.93;;;;;;;;;;4994097;28;20050;-82
2024/02/06 05:16:58;;;;;;;29.20;5.47;;;;;;;;;;4961263;28;20888;-82
2024/02/06 05:19:24;;;;;;;36.10;4.97;;;;;;;;;;4993268;28;20381;-82
2024/02/06 05:21:51;;;;;;;28.60;4.60;;;;;;;;;;4995039;28;20050;-82
2024/02/06 05:24:18;;;;;;;22.92;4.90;;;;;;;;;;4960566;28;20038;-82
2024/02/06 05:26:45;;;;;;;33.05;5.32;;;;;;;;;;4977178;28;20057;-82
2024/02/06 05:29:12;;;;;;;32.30;4.97;;;;;;;;;;4993785;28;20137;-82
2024/02/06 05:31:38;;;;;;;33.10;5.93;;;;;;;;;;4992762;28;20042;-82
2024/02/06 05:34:05;;;;;;;37.40;5.32;;;;;;;;;;4976123;28;20096;-82
2024/02/06 05:36:32;;;;;;;34.83;5.00;;;;;;;;;;4976678;28;20042;-81
2024/02/06 05:38:59;;;;;;;42.70;4.60;;;;;;;;;;4994051;28;20046;-80
2024/02/06 05:41:29;;;;;;;36.00;5.75;;;;;;;;;;4992608;28;20489;-83
2024/02/06 05:43:56;;;;;;;27.70;5.03;;;;;;;;;;4994027;28;20126;-83
2024/02/06 05:46:24;;;;;;;36.67;5.13;;;;;;;;;;4993386;28;20050;-83
2024/02/06 05:48:51;;;;;;;35.47;5.57;;;;;;;;;;4976752;28;20055;-82
2024/02/06 05:51:18;;;;;;;38.10;6.35;;;;;;;;;;4992736;28;20099;-82
2024/02/06 05:53:46;;;;;;;33.03;6.13;;;;;;;;;;4992009;28;20057;-83
2024/02/06 05:56:16;;;;;;;33.55;5.60;;;;;;;;;;4975777;28;20038;-83
2024/02/06 05:58:43;;;;;;;41.53;5.63;;;;;;;;;;4983694;28;20116;-83
2024/02/06 06:01:10;;;;;;;30.45;5.47;;;;;;;;;;4992517;28;20048;-82
2024/02/06 06:03:37;;;;;;;29.70;4.65;;;;;;;;;;4991369;28;20096;-83
2024/02/06 06:06:04;;;;;;;31.60;6.22;;;;;;;;;;4993166;28;20050;-82
2024/02/06 06:08:31;;;;;;;34.42;5.38;;;;;;;;;;4990612;28;20153;-82
2024/02/06 06:10:58;;;;;;;35.85;5.90;;;;;;;;;;4959861;28;20057;-83
2024/02/06 06:13:25;;;;;;;29.25;5.85;;;;;;;;;;4992214;28;20053;-83
2024/02/06 06:15:52;;;;;;;34.80;5.70;;;;;;;;;;4992847;28;20462;-83
2024/02/06 06:18:19;;;;;;;26.90;5.68;;;;;;;;;;4974625;28;20100;-83
2024/02/06 06:20:46;;;;;;;34.38;6.40;;;;;;;;;;4991655;28;20049;-82
2024/02/06 06:23:13;;;;;;;36.35;5.75;;;;;;;;;;4992730;28;20473;-82
2024/02/06 06:25:40;;;;;;;32.10;6.18;;;;;;;;;;4976149;28;20077;-82
2024/02/06 06:28:08;;;;;;;39.63;5.95;;;;;;;;;;4993353;28;20049;-82
2024/02/06 06:30:35;;;;;;;34.87;5.00;;;;;;;;;;4976352;28;20049;-82
2024/02/06 06:33:03;;;;;;;32.92;5.28;;;;;;;;;;4975843;28;20053;-82
2024/02/06 06:35:30;;;;;;;;;;;;;;;;;;4975634;28;20334;-82
2024/02/06 06:37:57;;;;;;;25.65;6.03;;;;;;;;;;4974116;28;19960;-83
2024/02/06 06:40:26;;;;;;;37.90;5.85;;;;;;;;;;4990610;28;20054;-82
2024/02/06 06:42:53;;;;;;;30.85;5.82;;;;;;;;;;4958789;28;20050;-82
2024/02/06 06:45:20;;;;;;;32.30;5.72;;;;;;;;;;4961286;28;20129;-82
2024/02/06 06:47:47;;;;;;;35.75;6.70;;;;;;;;;;4991552;28;20051;-83
2024/02/06 06:50:14;;;;;;;39.35;7.30;;;;;;;;;;4991714;28;20042;-82
2024/02/06 06:52:41;;;;;;;32.95;5.63;;;;;;;;;;4995358;28;20050;-83
2024/02/06 06:55:09;;;;;;;30.83;5.95;;;;;;;;;;4976853;28;20050;-82
2024/02/06 06:57:42;;;;;;;39.83;6.25;;;;;;;;;;4997208;28;20050;-82
2024/02/06 07:00:11;;;;;;;43.83;7.55;;;;;;;;;;4996677;28;20397;-82
2024/02/06 07:02:39;;;;;;;39.35;6.15;;;;;;;;;;4997158;28;20045;-83
2024/02/06 07:05:12;;;;;;;39.10;6.00;;;;;;;;;;4995304;28;20046;-82
2024/02/06 07:07:39;;;;;;;42.38;6.30;;;;;;;;;;4996110;28;20445;-81
2024/02/06 07:10:06;;;;;;;35.00;6.72;;;;;;;;;;4996597;28;20046;-81
2024/02/06 07:12:33;;;;;;;35.53;6.38;;;;;;;;;;4979213;28;20488;-82
2024/02/06 07:15:00;;;;;;;39.60;6.55;;;;;;;;;;4996875;28;20065;-81
2024/02/06 07:17:27;;;;;;;35.78;5.97;;;;;;;;;;4996179;28;20046;-82
2024/02/06 07:19:54;;;;;;;31.38;7.07;;;;;;;;;;4996693;28;20035;-82
2024/02/06 07:22:21;;;;;;;35.90;6.07;;;;;;;;;;4994891;28;20042;-82
2024/02/06 07:24:48;;;;;;;39.58;6.78;;;;;;;;;;4996192;28;20042;-82
2024/02/06 07:27:15;;;;;;;34.83;6.57;;;;;;;;;;4994981;28;20104;-82
2024/02/06 07:29:42;;;;;;;36.45;6.13;;;;;;;;;;4977809;28;20050;-82
2024/02/06 07:32:09;;;;;;;44.10;7.65;;;;;;;;;;4994637;28;20093;-82
2024/02/06 07:34:36;;;;;;;37.83;7.15;;;;;;;;;;4994997;28;20390;-82
2024/02/06 07:37:03;;;;;;;37.10;7.13;;;;;;;;;;4995419;28;20053;-81
2024/02/06 07:39:30;;;;;;;39.67;7.05;;;;;;;;;;4995915;28;20088;-82
2024/02/06 07:41:56;;;;;;;38.58;6.70;;;;;;;;;;4996270;28;20100;-82
2024/02/06 07:44:23;;;;;;;44.53;7.20;;;;;;;;;;4989726;28;20393;-86
2024/02/06 07:46:50;;;;;;;36.00;6.60;;;;;;;;;;4951753;28;20101;-86
2024/02/06 07:49:18;;;;;;;41.67;7.95;;;;;;;;;;4961774;28;20505;-82
2024/02/06 07:51:46;;;;;;;44.80;7.65;;;;;;;;;;4977632;28;20070;-82
2024/02/06 07:54:13;;;;;;;37.08;7.47;;;;;;;;;;4974197;28;20563;-82
2024/02/06 07:56:39;;;;;;;49.45;8.93;;;;;;;;;;4976641;28;20053;-81
2024/02/06 07:59:11;;;;;;;41.40;7.97;;;;;;;;;;4982541;28;20057;-81
2024/02/06 08:01:38;;;;;;;34.95;6.68;;;;;;;;;;4990844;28;20077;-82
2024/02/06 08:04:05;;;;;;;46.92;9.43;;;;;;;;;;4979483;28;20101;-82
2024/02/06 08:06:32;;;;;;;35.45;7.97;;;;;;;;;;4980062;28;20122;-82
2024/02/06 08:08:59;;;;;;;48.75;9.65;;;;;;;;;;4975149;28;20486;-82
2024/02/06 08:11:26;;;;;;;46.58;8.10;;;;;;;;;;4959763;28;20051;-82
2024/02/06 08:13:53;;;;;;;43.95;10.00;;;;;;;;;;4989311;28;20050;-82
2024/02/06 08:16:20;;;;;;;52.03;9.10;;;;;;;;;;4993059;28;20133;-82
2024/02/06 08:18:47;;;;;;;39.60;10.02;;;;;;;;;;4975453;28;20422;-81
2024/02/06 08:21:13;;;;;;;44.85;9.40;;;;;;;;;;4980288;28;20042;-81
2024/02/06 08:23:40;;;;;;;49.38;8.98;;;;;;;;;;4974688;28;20404;-81
2024/02/06 08:26:07;;;;;;;49.53;10.63;;;;;;;;;;4985230;28;20039;-81
2024/02/06 08:28:34;;;;;;;48.35;10.60;;;;;;;;;;4989313;28;20043;-81
2024/02/06 08:31:01;;;;;;;55.50;10.57;;;;;;;;;;4990369;28;20043;-81
2024/02/06 08:33:29;;;;;;;50.67;10.60;;;;;;;;;;4985317;28;20046;-81
2024/02/06 08:35:55;;;;;;;62.17;13.30;;;;;;;;;;4972178;28;20046;-81
2024/02/06 08:38:23;;;;;;;45.00;11.68;;;;;;;;;;4983341;28;20133;-81
2024/02/06 08:40:50;;;;;;;46.60;11.93;;;;;;;;;;4993430;28;20043;-82
2024/02/06 08:43:17;;;;;;;61.00;11.35;;;;;;;;;;4987415;28;20294;-81
2024/02/06 08:45:44;;;;;;;58.17;13.05;;;;;;;;;;4981451;28;20500;-81
2024/02/06 08:48:11;;;;;;;55.83;10.85;;;;;;;;;;4993747;28;20129;-81
2024/02/06 08:50:38;;;;;;;52.05;13.05;;;;;;;;;;4973040;28;20079;-81
2024/02/06 08:53:05;;;;;;;56.97;12.38;;;;;;;;;;4994538;28;20050;-81
2024/02/06 08:55:32;;;;;;;52.05;12.65;;;;;;;;;;4994672;28;20050;-81
2024/02/06 08:57:59;;;;;;;52.67;14.75;;;;;;;;;;4994648;28;20155;-81
2024/02/06 09:00:26;;;;;;;53.25;14.25;;;;;;;;;;4994380;28;21042;-81
2024/02/06 09:02:53;;;;;;;50.03;13.40;;;;;;;;;;4994758;28;20048;-81
2024/02/06 09:05:20;;;;;;;42.53;14.02;;;;;;;;;;4993628;28;20481;-81
2024/02/06 09:07:47;;;;;;;63.17;14.23;;;;;;;;;;4994392;28;20046;-81
2024/02/06 09:10:14;;;;;;;45.35;14.95;;;;;;;;;;4994157;28;20449;-81
2024/02/06 09:12:40;;;;;;;71.70;27.55;;;;;;;;;;4994843;28;20307;-81
2024/02/06 09:15:07;;;;;;;49.92;14.38;;;;;;;;;;4994255;28;20425;-81
2024/02/06 09:17:35;;;;;;;54.42;13.75;;;;;;;;;;4994511;28;20066;-81
2024/02/06 09:20:02;;;;;;;59.15;19.38;;;;;;;;;;4977260;28;20081;-81
2024/02/06 09:22:30;;;;;;;49.25;16.05;;;;;;;;;;4993986;28;20092;-81
2024/02/06 09:24:56;;;;;;;51.92;20.15;;;;;;;;;;4976985;28;20035;-81
2024/02/06 09:27:23;;;;;;;62.05;19.80;;;;;;;;;;4993791;28;20052;-81
2024/02/06 09:29:50;;;;;;;53.90;16.42;;;;;;;;;;4993156;28;20046;-81
2024/02/06 09:32:17;;;;;;;56.15;16.27;;;;;;;;;;4993911;28;20069;-81
2024/02/06 09:34:44;;;;;;;57.88;16.10;;;;;;;;;;4993847;28;20046;-80
2024/02/06 09:37:11;;;;;;;54.97;15.73;;;;;;;;;;4992546;28;20096;-81
2024/02/06 09:39:38;;;;;;;65.22;18.92;;;;;;;;;;4994123;28;20052;-80
2024/02/06 09:42:05;;;;;;;73.65;24.40;;;;;;;;;;4992255;28;20100;-80
2024/02/06 09:44:32;;;;;;;59.42;18.35;;;;;;;;;;4975084;28;20473;-81
2024/02/06 09:46:59;;;;;;;59.90;17.65;;;;;;;;;;4992845;28;20062;-81
2024/02/06 09:49:27;;;;;;;57.92;23.83;;;;;;;;;;4974088;28;20053;-81
2024/02/06 09:51:54;;;;;;;63.80;28.27;;;;;;;;;;4975623;28;20065;-81
2024/02/06 09:54:25;;;;;;;66.78;24.38;;;;;;;;;;4973108;28;20051;-81
2024/02/06 09:56:55;;;;;;;63.42;20.13;;;;;;;;;;4977650;28;20043;-81
2024/02/06 09:59:23;;;;;;;56.45;18.15;;;;;;;;;;4958516;28;20047;-80
2024/02/06 10:01:51;;;;;;;70.80;18.35;;;;;;;;;;4979851;28;20043;-81
2024/02/06 10:04:25;;;;;;;63.47;20.33;;;;;;;;;;4983471;28;20462;-81
2024/02/06 10:06:52;;;;;;;65.55;20.00;;;;;;;;;;4976562;28;20141;-81
2024/02/06 10:09:21;;;;;;;62.45;20.05;;;;;;;;;;4973660;28;20049;-81
2024/02/06 10:11:50;;;;;;;70.00;20.52;;;;;;;;;;4986986;28;20105;-81
2024/02/06 10:14:17;;;;;;;53.15;20.98;;;;;;;;;;4983792;28;20042;-81
2024/02/06 10:16:44;;;;;;;78.97;20.30;;;;;;;;;;4976267;28;20041;-81
2024/02/06 10:19:12;;;;;;;71.47;20.75;;;;;;;;;;4957685;28;20043;-81
2024/02/06 10:21:40;;;;;;;74.65;21.85;;;;;;;;;;4974069;28;20047;-81
2024/02/06 10:24:07;;;;;;;74.93;20.33;;;;;;;;;;4974636;28;20042;-81
2024/02/06 10:26:34;;;;;;;75.85;20.73;;;;;;;;;;4983193;28;20385;-81
2024/02/06 10:29:11;;;;;;;68.15;20.92;;;;;;;;;;4982077;28;20061;-80
2024/02/06 10:31:38;;;;;;;68.50;23.02;;;;;;;;;;4989093;28;20133;-81
2024/02/06 10:34:07;;;;;;;74.28;23.83;;;;;;;;;;4982438;28;20093;-81
2024/02/06 10:36:35;;;;;;;68.88;21.90;;;;;;;;;;4979529;28;20038;-81
2024/02/06 10:39:03;;;;;;;77.63;24.90;;;;;;;;;;4976334;28;20529;-81
2024/02/06 10:41:30;;;;;;;69.07;20.67;;;;;;;;;;4982570;28;20046;-81
2024/02/06 10:44:22;;;;;;;70.88;20.23;;;;;;;;;;4989764;28;20042;-81
2024/02/06 10:46:59;;;;;;;65.32;21.85;;;;;;;;;;4984489;28;20150;-81
2024/02/06 10:49:26;;;;;;;70.20;27.92;;;;;;;;;;4975844;28;20470;-80
2024/02/06 10:52:03;;;;;;;78.78;25.27;;;;;;;;;;4992980;28;20054;-81
2024/02/06 10:54:30;;;;;;;66.22;20.98;;;;;;;;;;4991507;28;20149;-81
2024/02/06 10:57:07;;;;;;;71.65;19.65;;;;;;;;;;4993268;28;20524;-81
2024/02/06 11:00:00;;;;;;;66.20;22.15;;;;;;;;;;4987043;28;20041;-81
2024/02/06 11:02:30;;;;;;;53.80;18.58;;;;;;;;;;4991064;28;20043;-81
2024/02/06 11:05:11;;;;;;;61.53;22.23;;;;;;;;;;4993405;28;20057;-81
2024/02/06 11:07:56;;;;;;;66.60;19.35;;;;;;;;;;4992976;28;20393;-81
2024/02/06 11:10:31;;;;;;;62.72;19.65;;;;;;;;;;4981068;28;20043;-81
2024/02/06 11:13:03;;;;;;;71.38;21.40;;;;;;;;;;4956566;28;20134;-81
2024/02/06 11:15:31;;;;;;;77.57;20.85;;;;;;;;;;4972351;28;20047;-81
2024/02/06 11:17:59;;;;;;;64.03;24.05;;;;;;;;;;4973847;28;20054;-81
2024/02/06 11:20:28;;;;;;;74.85;20.67;;;;;;;;;;4981431;28;20061;-81
2024/02/06 11:22:58;;;;;;;65.60;19.75;;;;;;;;;;4982057;28;20046;-81
2024/02/06 11:25:29;;;;;;;64.05;20.70;;;;;;;;;;4988458;28;20043;-80
2024/02/06 11:27:56;;;;;;;71.47;20.15;;;;;;;;;;4973566;28;20057;-81
2024/02/06 11:30:24;;;;;;;66.50;21.10;;;;;;;;;;4975135;28;20493;-81
2024/02/06 11:33:09;;;;;;;129.63;55.65;;;;;;;;;;4978098;28;20298;-81
2024/02/06 11:35:36;;;;;;;75.03;23.88;;;;;;;;;;4993879;28;20057;-81
2024/02/06 11:38:04;;;;;;;64.03;19.20;;;;;;;;;;4978039;28;20090;-81
2024/02/06 11:40:32;;;;;;;64.53;18.70;;;;;;;;;;4990810;28;20046;-82
2024/02/06 11:43:09;;;;;;;67.28;19.27;;;;;;;;;;4995069;28;20074;-81
2024/02/06 11:45:41;;;;;;;63.45;18.85;;;;;;;;;;4978838;28;20051;-81
2024/02/06 11:48:09;;;;;;;76.25;22.08;;;;;;;;;;4976096;28;20047;-81
2024/02/06 11:50:46;;;;;;;65.00;20.40;;;;;;;;;;4976551;28;20054;-81
2024/02/06 11:53:14;;;;;;;70.22;22.88;;;;;;;;;;4991787;28;20076;-81
2024/02/06 11:55:42;;;;;;;58.85;18.00;;;;;;;;;;4958210;28;20402;-81
2024/02/06 11:58:10;;;;;;;66.15;18.58;;;;;;;;;;4958664;28;20049;-81
2024/02/06 12:00:37;;;;;;;53.88;18.85;;;;;;;;;;4977708;28;20074;-82
2024/02/06 12:03:04;;;;;;;60.50;18.33;;;;;;;;;;4971708;28;20050;-81
2024/02/06 12:05:37;;;;;;;64.88;20.90;;;;;;;;;;4995463;28;20109;-82
2024/02/06 12:08:08;;;;;;;46.80;15.88;;;;;;;;;;4981904;28;20453;-81
2024/02/06 12:10:35;;;;;;;60.15;16.10;;;;;;;;;;4995221;28;20039;-81
2024/02/06 12:13:09;;;;;;;61.53;15.63;;;;;;;;;;4995732;28;20057;-82
2024/02/06 12:15:37;;;;;;;64.22;18.30;;;;;;;;;;4995418;28;20057;-82
2024/02/06 12:18:08;;;;;;;52.67;14.85;;;;;;;;;;4984607;28;20038;-81
2024/02/06 12:20:35;;;;;;;60.67;16.42;;;;;;;;;;4981092;28;20035;-82
2024/02/06 12:23:08;;;;;;;50.78;16.02;;;;;;;;;;4985203;28;20066;-81
2024/02/06 12:25:38;;;;;;;62.97;14.57;;;;;;;;;;4994468;28;20129;-82
2024/02/06 12:28:15;;;;;;;60.45;15.63;;;;;;;;;;4958643;28;20047;-81
2024/02/06 12:30:50;;;;;;;52.93;14.13;;;;;;;;;;4978247;28;20495;-81
2024/02/06 12:33:18;;;;;;;55.45;15.27;;;;;;;;;;4986875;28;20285;-82
2024/02/06 12:35:46;;;;;;;58.15;14.27;;;;;;;;;;4994608;28;20066;-81
2024/02/06 12:38:13;;;;;;;62.53;16.85;;;;;;;;;;4987555;28;20046;-82
2024/02/06 12:40:42;;;;;;;52.70;17.90;;;;;;;;;;4978425;28;20477;-80
2024/02/06 12:43:14;;;;;;;58.00;16.73;;;;;;;;;;4989991;28;20042;-82
2024/02/06 12:45:42;;;;;;;45.83;14.48;;;;;;;;;;4995256;28;20112;-80
2024/02/06 12:48:09;;;;;;;48.08;14.15;;;;;;;;;;4994666;28;20046;-81
2024/02/06 12:50:36;;;;;;;100.40;63.78;;;;;;;;;;4993676;28;20057;-81
2024/02/06 12:53:04;;;;;;;93.40;53.97;;;;;;;;;;4993456;28;20129;-81
2024/02/06 12:55:32;;;;;;;61.97;21.70;;;;;;;;;;4993943;28;20609;-81
2024/02/06 12:58:00;;;;;;;55.47;15.35;;;;;;;;;;4995038;28;20649;-81
2024/02/06 13:00:28;;;;;;;43.17;16.63;;;;;;;;;;4994486;28;20050;-81
2024/02/06 13:03:03;;;;;;;43.67;14.88;;;;;;;;;;4994909;28;20050;-81
2024/02/06 13:05:33;;;;;;;46.40;15.15;;;;;;;;;;4994604;28;20050;-81
2024/02/06 13:08:15;;;;;;;49.85;14.80;;;;;;;;;;4994752;28;20549;-81
2024/02/06 13:10:43;;;;;;;49.70;14.73;;;;;;;;;;4994890;28;20066;-81
2024/02/06 13:13:09;;;;;;;54.85;16.92;;;;;;;;;;4994225;28;20110;-81
2024/02/06 13:15:36;;;;;;;56.28;16.55;;;;;;;;;;4993435;28;20082;-82
2024/02/06 13:18:04;;;;;;;53.25;16.15;;;;;;;;;;4994426;28;20054;-79
2024/02/06 13:20:32;;;;;;;48.27;15.43;;;;;;;;;;4994733;28;20042;-81
2024/02/06 13:23:15;;;;;;;54.05;16.55;;;;;;;;;;4994532;28;20088;-81
2024/02/06 13:25:43;;;;;;;42.75;14.65;;;;;;;;;;4993973;28;20069;-81
2024/02/06 13:28:10;;;;;;;51.95;15.90;;;;;;;;;;4993797;28;20053;-81
2024/02/06 13:30:37;;;;;;;54.28;15.23;;;;;;;;;;4994461;28;20050;-81
2024/02/06 13:33:06;;;;;;;59.75;15.32;;;;;;;;;;4976803;28;20046;-79
2024/02/06 13:35:34;;;;;;;52.60;14.23;;;;;;;;;;4994088;28;20042;-81
2024/02/06 13:38:03;;;;;;;49.13;14.15;;;;;;;;;;4994422;28;20427;-81
2024/02/06 13:40:30;;;;;;;53.35;15.52;;;;;;;;;;4976654;28;20081;-81
2024/02/06 13:43:00;;;;;;;48.22;14.80;;;;;;;;;;4993138;28;20042;-81
2024/02/06 13:45:27;;;;;;;61.38;16.20;;;;;;;;;;4993626;28;20038;-81
2024/02/06 13:47:54;;;;;;;51.80;15.00;;;;;;;;;;4993990;28;20065;-81
2024/02/06 13:50:21;;;;;;;57.38;14.38;;;;;;;;;;4976298;28;20053;-81
2024/02/06 13:52:48;;;;;;;54.53;14.83;;;;;;;;;;4993461;28;20413;-81
2024/02/06 13:55:16;;;;;;;52.03;15.48;;;;;;;;;;4993624;28;20493;-82
2024/02/06 13:57:43;;;;;;;63.50;15.55;;;;;;;;;;4976698;28;20054;-81
2024/02/06 14:00:12;;;;;;;46.55;13.65;;;;;;;;;;4993208;28;20042;-81
2024/02/06 14:02:41;;;;;;;55.42;14.45;;;;;;;;;;4993989;28;20460;-81
2024/02/06 14:05:08;;;;;;;55.15;14.43;;;;;;;;;;4993417;28;20049;-81
2024/02/06 14:07:35;;;;;;;55.20;14.55;;;;;;;;;;4993783;28;20047;-81
2024/02/06 14:10:02;;;;;;;56.30;15.75;;;;;;;;;;4993609;28;20050;-81
2024/02/06 14:12:29;;;;;;;56.92;14.43;;;;;;;;;;4993436;28;20105;-81
2024/02/06 14:15:09;;;;;;;57.80;14.18;;;;;;;;;;4993357;28;20077;-81
2024/02/06 14:17:37;;;;;;;55.50;13.98;;;;;;;;;;4993521;28;20043;-82
2024/02/06 14:20:06;;;;;;;53.35;14.23;;;;;;;;;;4976606;28;20385;-81
2024/02/06 14:22:33;;;;;;;48.65;14.45;;;;;;;;;;4993420;28;20046;-81
2024/02/06 14:25:01;;;;;;;70.22;15.43;;;;;;;;;;4993459;28;20425;-81
2024/02/06 14:27:27;;;;;;;57.75;13.77;;;;;;;;;;4993064;28;20049;-81
2024/02/06 14:29:54;;;;;;;53.70;13.88;;;;;;;;;;4993538;28;20097;-80